sensor_id;sensor_type;location;lat;lon;timestamp;P1;durP1;ratioP1;P2;durP2;ratioP2
3207;SDS011;1616;52.394;9.756;2023-06-22T00:00:54;12.53;;;11.47;;
3207;SDS011;1616;52.394;9.756;2023-06-22T00:03:21;11.73;;;11.13;;
3207;SDS011;1616;52.394;9.756;2023-06-22T00:05:48;12.07;;;11.03;;
3207;SDS011;1616;52.394;9.756;2023-06-22T00:08:14;13.13;;;12.37;;
3207;SDS011;1616;52.394;9.756;2023-06-22T00:10:41;12.93;;;12.00;;
3207;SDS011;1616;52.394;9.756;2023-06-22T00:13:07;14.23;;;13.43;;
3207;SDS011;1616;52.394;9.756;2023-06-22T00:15:35;14.17;;;13.00;;
3207;SDS011;1616;52.394;9.756;2023-06-22T00:18:02;13.17;;;12.37;;
3207;SDS011;1616;52.394;9.756;2023-06-22T00:20:28;13.73;;;12.93;;
3207;SDS011;1616;52.394;9.756;2023-06-22T00:22:55;13.60;;;12.80;;
3207;SDS011;1616;52.394;9.756;2023-06-22T00:25:22;12.70;;;12.10;;
3207;SDS011;1616;52.394;9.756;2023-06-22T00:27:48;13.23;;;12.43;;
3207;SDS011;1616;52.394;9.756;2023-06-22T00:30:18;13.40;;;12.40;;
3207;SDS011;1616;52.394;9.756;2023-06-22T00:32:44;12.53;;;11.73;;
3207;SDS011;1616;52.394;9.756;2023-06-22T00:35:11;12.17;;;11.57;;
3207;SDS011;1616;52.394;9.756;2023-06-22T00:37:37;13.03;;;12.23;;
3207;SDS011;1616;52.394;9.756;2023-06-22T00:40:06;12.70;;;12.00;;
3207;SDS011;1616;52.394;9.756;2023-06-22T00:42:34;12.57;;;11.77;;
3207;SDS011;1616;52.394;9.756;2023-06-22T00:45:00;12.90;;;11.90;;
3207;SDS011;1616;52.394;9.756;2023-06-22T00:47:25;13.53;;;12.63;;
3207;SDS011;1616;52.394;9.756;2023-06-22T00:49:52;12.60;;;11.80;;
3207;SDS011;1616;52.394;9.756;2023-06-22T00:52:19;14.37;;;13.40;;
3207;SDS011;1616;52.394;9.756;2023-06-22T00:54:50;13.27;;;12.40;;
3207;SDS011;1616;52.394;9.756;2023-06-22T00:57:17;13.07;;;12.27;;
3207;SDS011;1616;52.394;9.756;2023-06-22T00:59:43;13.23;;;12.33;;
3207;SDS011;1616;52.394;9.756;2023-06-22T01:02:10;13.90;;;12.70;;
3207;SDS011;1616;52.394;9.756;2023-06-22T01:04:37;13.43;;;12.63;;
3207;SDS011;1616;52.394;9.756;2023-06-22T01:07:20;14.33;;;13.53;;
3207;SDS011;1616;52.394;9.756;2023-06-22T01:12:29;12.40;;;11.40;;
3207;SDS011;1616;52.394;9.756;2023-06-22T01:15:03;12.50;;;11.77;;
3207;SDS011;1616;52.394;9.756;2023-06-22T01:17:35;11.67;;;10.83;;
3207;SDS011;1616;52.394;9.756;2023-06-22T01:20:05;11.93;;;11.33;;
3207;SDS011;1616;52.394;9.756;2023-06-22T01:22:36;12.30;;;11.57;;
3207;SDS011;1616;52.394;9.756;2023-06-22T01:25:38;12.67;;;12.03;;
3207;SDS011;1616;52.394;9.756;2023-06-22T01:31:14;12.80;;;11.83;;
3207;SDS011;1616;52.394;9.756;2023-06-22T01:33:47;12.57;;;11.53;;
3207;SDS011;1616;52.394;9.756;2023-06-22T01:36:16;11.57;;;10.50;;
3207;SDS011;1616;52.394;9.756;2023-06-22T01:38:42;11.83;;;11.13;;
3207;SDS011;1616;52.394;9.756;2023-06-22T01:41:09;11.17;;;10.57;;
3207;SDS011;1616;52.394;9.756;2023-06-22T01:43:35;11.40;;;10.23;;
3207;SDS011;1616;52.394;9.756;2023-06-22T01:46:02;12.13;;;11.27;;
3207;SDS011;1616;52.394;9.756;2023-06-22T01:48:28;10.97;;;10.10;;
3207;SDS011;1616;52.394;9.756;2023-06-22T01:50:55;11.27;;;10.77;;
3207;SDS011;1616;52.394;9.756;2023-06-22T01:53:24;11.40;;;10.70;;
3207;SDS011;1616;52.394;9.756;2023-06-22T01:55:50;10.70;;;10.13;;
3207;SDS011;1616;52.394;9.756;2023-06-22T01:58:16;10.77;;;10.17;;
3207;SDS011;1616;52.394;9.756;2023-06-22T02:00:53;10.30;;;9.70;;
3207;SDS011;1616;52.394;9.756;2023-06-22T02:03:35;10.20;;;9.60;;
3207;SDS011;1616;52.394;9.756;2023-06-22T02:06:05;10.47;;;9.87;;
3207;SDS011;1616;52.394;9.756;2023-06-22T02:08:39;9.53;;;8.97;;
3207;SDS011;1616;52.394;9.756;2023-06-22T02:11:07;10.80;;;10.20;;
3207;SDS011;1616;52.394;9.756;2023-06-22T02:13:35;12.10;;;10.93;;
3207;SDS011;1616;52.394;9.756;2023-06-22T02:16:02;11.90;;;11.10;;
3207;SDS011;1616;52.394;9.756;2023-06-22T02:18:28;10.27;;;9.70;;
3207;SDS011;1616;52.394;9.756;2023-06-22T02:20:54;11.03;;;10.53;;
3207;SDS011;1616;52.394;9.756;2023-06-22T02:23:19;11.77;;;11.07;;
3207;SDS011;1616;52.394;9.756;2023-06-22T02:25:45;10.13;;;9.53;;
3207;SDS011;1616;52.394;9.756;2023-06-22T02:28:11;11.40;;;10.80;;
3207;SDS011;1616;52.394;9.756;2023-06-22T02:30:37;10.73;;;10.07;;
3207;SDS011;1616;52.394;9.756;2023-06-22T02:33:02;9.80;;;9.27;;
3207;SDS011;1616;52.394;9.756;2023-06-22T02:35:28;9.77;;;9.37;;
3207;SDS011;1616;52.394;9.756;2023-06-22T02:38:00;10.50;;;10.00;;
3207;SDS011;1616;52.394;9.756;2023-06-22T02:40:28;10.47;;;9.60;;
3207;SDS011;1616;52.394;9.756;2023-06-22T02:42:54;11.23;;;10.53;;
3207;SDS011;1616;52.394;9.756;2023-06-22T02:45:20;9.90;;;9.30;;
3207;SDS011;1616;52.394;9.756;2023-06-22T02:47:46;10.30;;;9.80;;
3207;SDS011;1616;52.394;9.756;2023-06-22T02:50:14;10.90;;;10.30;;
3207;SDS011;1616;52.394;9.756;2023-06-22T02:52:40;11.23;;;10.53;;
3207;SDS011;1616;52.394;9.756;2023-06-22T02:55:06;11.77;;;11.17;;
3207;SDS011;1616;52.394;9.756;2023-06-22T02:57:33;10.13;;;9.40;;
3207;SDS011;1616;52.394;9.756;2023-06-22T02:59:59;14.40;;;13.43;;
3207;SDS011;1616;52.394;9.756;2023-06-22T03:02:24;10.27;;;9.87;;
3207;SDS011;1616;52.394;9.756;2023-06-22T03:04:51;10.57;;;9.97;;
3207;SDS011;1616;52.394;9.756;2023-06-22T03:07:19;13.40;;;12.53;;
3207;SDS011;1616;52.394;9.756;2023-06-22T03:09:45;13.63;;;12.83;;
3207;SDS011;1616;52.394;9.756;2023-06-22T03:12:11;14.00;;;13.00;;
3207;SDS011;1616;52.394;9.756;2023-06-22T03:14:36;11.60;;;11.00;;
3207;SDS011;1616;52.394;9.756;2023-06-22T03:17:04;11.90;;;11.20;;
3207;SDS011;1616;52.394;9.756;2023-06-22T03:19:30;10.57;;;10.07;;
3207;SDS011;1616;52.394;9.756;2023-06-22T03:21:57;10.97;;;10.00;;
3207;SDS011;1616;52.394;9.756;2023-06-22T03:24:24;14.90;;;13.90;;
3207;SDS011;1616;52.394;9.756;2023-06-22T03:26:50;10.10;;;9.70;;
3207;SDS011;1616;52.394;9.756;2023-06-22T03:29:15;12.83;;;11.87;;
3207;SDS011;1616;52.394;9.756;2023-06-22T03:31:41;13.50;;;12.40;;
3207;SDS011;1616;52.394;9.756;2023-06-22T03:34:06;11.63;;;10.93;;
3207;SDS011;1616;52.394;9.756;2023-06-22T03:36:32;10.40;;;9.90;;
3207;SDS011;1616;52.394;9.756;2023-06-22T03:38:58;12.17;;;9.83;;
3207;SDS011;1616;52.394;9.756;2023-06-22T03:41:23;9.87;;;9.37;;
3207;SDS011;1616;52.394;9.756;2023-06-22T03:43:49;9.90;;;9.37;;
3207;SDS011;1616;52.394;9.756;2023-06-22T03:46:15;9.10;;;8.70;;
3207;SDS011;1616;52.394;9.756;2023-06-22T03:48:40;10.03;;;9.53;;
3207;SDS011;1616;52.394;9.756;2023-06-22T03:51:06;13.80;;;12.67;;
3207;SDS011;1616;52.394;9.756;2023-06-22T03:53:31;10.50;;;9.77;;
3207;SDS011;1616;52.394;9.756;2023-06-22T03:55:57;9.00;;;8.60;;
3207;SDS011;1616;52.394;9.756;2023-06-22T03:58:22;10.07;;;9.50;;
3207;SDS011;1616;52.394;9.756;2023-06-22T04:00:50;9.87;;;9.27;;
3207;SDS011;1616;52.394;9.756;2023-06-22T04:03:16;9.57;;;9.17;;
3207;SDS011;1616;52.394;9.756;2023-06-22T04:05:45;9.40;;;9.00;;
3207;SDS011;1616;52.394;9.756;2023-06-22T04:08:14;10.13;;;9.63;;
3207;SDS011;1616;52.394;9.756;2023-06-22T04:10:40;10.20;;;9.80;;
3207;SDS011;1616;52.394;9.756;2023-06-22T04:13:06;10.83;;;10.33;;
3207;SDS011;1616;52.394;9.756;2023-06-22T04:15:32;10.60;;;10.00;;
3207;SDS011;1616;52.394;9.756;2023-06-22T04:17:58;12.10;;;11.13;;
3207;SDS011;1616;52.394;9.756;2023-06-22T04:20:24;9.47;;;8.90;;
3207;SDS011;1616;52.394;9.756;2023-06-22T04:22:54;11.33;;;10.63;;
3207;SDS011;1616;52.394;9.756;2023-06-22T04:25:19;11.17;;;10.47;;
3207;SDS011;1616;52.394;9.756;2023-06-22T04:27:45;9.07;;;8.70;;
3207;SDS011;1616;52.394;9.756;2023-06-22T04:30:12;11.97;;;10.70;;
3207;SDS011;1616;52.394;9.756;2023-06-22T04:32:40;11.57;;;10.90;;
3207;SDS011;1616;52.394;9.756;2023-06-22T04:35:06;11.03;;;10.33;;
3207;SDS011;1616;52.394;9.756;2023-06-22T04:37:32;10.67;;;9.90;;
3207;SDS011;1616;52.394;9.756;2023-06-22T04:39:58;11.33;;;10.70;;
3207;SDS011;1616;52.394;9.756;2023-06-22T04:42:27;10.40;;;9.60;;
3207;SDS011;1616;52.394;9.756;2023-06-22T04:44:53;10.03;;;9.50;;
3207;SDS011;1616;52.394;9.756;2023-06-22T04:47:19;11.13;;;10.50;;
3207;SDS011;1616;52.394;9.756;2023-06-22T04:49:45;10.80;;;10.17;;
3207;SDS011;1616;52.394;9.756;2023-06-22T04:52:12;11.20;;;10.50;;
3207;SDS011;1616;52.394;9.756;2023-06-22T04:54:39;9.17;;;8.67;;
3207;SDS011;1616;52.394;9.756;2023-06-22T04:57:13;8.73;;;8.43;;
3207;SDS011;1616;52.394;9.756;2023-06-22T04:59:39;9.40;;;8.90;;
3207;SDS011;1616;52.394;9.756;2023-06-22T05:02:06;8.63;;;7.93;;
3207;SDS011;1616;52.394;9.756;2023-06-22T05:04:33;8.03;;;7.60;;
3207;SDS011;1616;52.394;9.756;2023-06-22T05:07:01;8.73;;;8.33;;
3207;SDS011;1616;52.394;9.756;2023-06-22T05:09:27;10.43;;;9.83;;
3207;SDS011;1616;52.394;9.756;2023-06-22T05:11:53;8.17;;;7.87;;
3207;SDS011;1616;52.394;9.756;2023-06-22T05:14:19;10.60;;;9.40;;
3207;SDS011;1616;52.394;9.756;2023-06-22T05:16:45;9.53;;;9.03;;
3207;SDS011;1616;52.394;9.756;2023-06-22T05:19:11;10.30;;;9.50;;
3207;SDS011;1616;52.394;9.756;2023-06-22T05:21:37;8.97;;;8.37;;
3207;SDS011;1616;52.394;9.756;2023-06-22T05:24:04;8.73;;;7.90;;
3207;SDS011;1616;52.394;9.756;2023-06-22T05:26:30;8.43;;;8.03;;
3207;SDS011;1616;52.394;9.756;2023-06-22T05:28:58;7.83;;;7.43;;
3207;SDS011;1616;52.394;9.756;2023-06-22T05:31:24;8.40;;;7.87;;
3207;SDS011;1616;52.394;9.756;2023-06-22T05:33:51;7.93;;;7.30;;
3207;SDS011;1616;52.394;9.756;2023-06-22T05:36:18;8.07;;;7.67;;
3207;SDS011;1616;52.394;9.756;2023-06-22T05:38:50;6.70;;;6.43;;
3207;SDS011;1616;52.394;9.756;2023-06-22T05:41:17;7.57;;;7.07;;
3207;SDS011;1616;52.394;9.756;2023-06-22T05:43:42;7.67;;;7.37;;
3207;SDS011;1616;52.394;9.756;2023-06-22T05:46:08;7.30;;;6.93;;
3207;SDS011;1616;52.394;9.756;2023-06-22T05:48:34;8.23;;;7.80;;
3207;SDS011;1616;52.394;9.756;2023-06-22T05:50:59;6.57;;;6.37;;
3207;SDS011;1616;52.394;9.756;2023-06-22T05:53:25;7.47;;;6.97;;
3207;SDS011;1616;52.394;9.756;2023-06-22T05:55:51;7.37;;;6.90;;
3207;SDS011;1616;52.394;9.756;2023-06-22T05:58:16;6.80;;;6.60;;
3207;SDS011;1616;52.394;9.756;2023-06-22T06:00:42;8.37;;;7.80;;
3207;SDS011;1616;52.394;9.756;2023-06-22T06:03:08;7.67;;;7.17;;
3207;SDS011;1616;52.394;9.756;2023-06-22T06:05:35;6.50;;;6.10;;
3207;SDS011;1616;52.394;9.756;2023-06-22T06:08:02;6.87;;;6.37;;
3207;SDS011;1616;52.394;9.756;2023-06-22T06:10:30;7.50;;;6.97;;
3207;SDS011;1616;52.394;9.756;2023-06-22T06:12:57;7.43;;;6.03;;
3207;SDS011;1616;52.394;9.756;2023-06-22T06:15:23;6.57;;;6.17;;
3207;SDS011;1616;52.394;9.756;2023-06-22T06:17:49;5.63;;;5.13;;
3207;SDS011;1616;52.394;9.756;2023-06-22T06:20:19;5.70;;;5.50;;
3207;SDS011;1616;52.394;9.756;2023-06-22T06:22:46;6.73;;;6.43;;
3207;SDS011;1616;52.394;9.756;2023-06-22T06:25:13;5.47;;;5.20;;
3207;SDS011;1616;52.394;9.756;2023-06-22T06:27:43;5.57;;;5.10;;
3207;SDS011;1616;52.394;9.756;2023-06-22T06:30:10;5.73;;;5.33;;
3207;SDS011;1616;52.394;9.756;2023-06-22T06:32:36;4.60;;;4.40;;
3207;SDS011;1616;52.394;9.756;2023-06-22T06:35:02;5.13;;;4.83;;
3207;SDS011;1616;52.394;9.756;2023-06-22T06:37:30;6.80;;;4.80;;
3207;SDS011;1616;52.394;9.756;2023-06-22T06:39:55;5.03;;;4.83;;
3207;SDS011;1616;52.394;9.756;2023-06-22T06:42:21;6.30;;;5.20;;
3207;SDS011;1616;52.394;9.756;2023-06-22T06:44:49;6.83;;;4.37;;
3207;SDS011;1616;52.394;9.756;2023-06-22T06:47:15;9.00;;;4.67;;
3207;SDS011;1616;52.394;9.756;2023-06-22T06:49:42;5.27;;;4.87;;
3207;SDS011;1616;52.394;9.756;2023-06-22T06:52:08;3.83;;;3.63;;
3207;SDS011;1616;52.394;9.756;2023-06-22T06:54:33;5.38;;;4.85;;
3207;SDS011;1616;52.394;9.756;2023-06-22T06:56:59;4.32;;;4.13;;
3207;SDS011;1616;52.394;9.756;2023-06-22T06:59:24;4.15;;;3.95;;
3207;SDS011;1616;52.394;9.756;2023-06-22T07:01:51;5.53;;;3.67;;
3207;SDS011;1616;52.394;9.756;2023-06-22T07:04:16;3.97;;;3.75;;
3207;SDS011;1616;52.394;9.756;2023-06-22T07:06:42;4.40;;;4.05;;
3207;SDS011;1616;52.394;9.756;2023-06-22T07:09:08;7.45;;;3.60;;
3207;SDS011;1616;52.394;9.756;2023-06-22T07:11:34;7.60;;;3.63;;
3207;SDS011;1616;52.394;9.756;2023-06-22T07:14:00;3.72;;;3.40;;
3207;SDS011;1616;52.394;9.756;2023-06-22T07:16:26;4.93;;;4.35;;
3207;SDS011;1616;52.394;9.756;2023-06-22T07:18:53;4.63;;;4.22;;
3207;SDS011;1616;52.394;9.756;2023-06-22T07:21:19;4.38;;;3.97;;
3207;SDS011;1616;52.394;9.756;2023-06-22T07:23:44;4.63;;;4.35;;
3207;SDS011;1616;52.394;9.756;2023-06-22T07:26:10;5.07;;;4.68;;
3207;SDS011;1616;52.394;9.756;2023-06-22T07:28:38;6.05;;;4.28;;
3207;SDS011;1616;52.394;9.756;2023-06-22T07:31:05;6.90;;;4.20;;
3207;SDS011;1616;52.394;9.756;2023-06-22T07:33:31;4.55;;;4.25;;
3207;SDS011;1616;52.394;9.756;2023-06-22T07:35:57;5.85;;;5.13;;
3207;SDS011;1616;52.394;9.756;2023-06-22T07:38:22;8.75;;;4.40;;
3207;SDS011;1616;52.394;9.756;2023-06-22T07:40:48;3.95;;;3.75;;
3207;SDS011;1616;52.394;9.756;2023-06-22T07:43:16;4.28;;;3.85;;
3207;SDS011;1616;52.394;9.756;2023-06-22T07:45:47;4.88;;;4.68;;
3207;SDS011;1616;52.394;9.756;2023-06-22T07:48:22;4.72;;;4.50;;
3207;SDS011;1616;52.394;9.756;2023-06-22T07:50:48;12.63;;;4.47;;
3207;SDS011;1616;52.394;9.756;2023-06-22T07:53:15;6.63;;;4.22;;
3207;SDS011;1616;52.394;9.756;2023-06-22T07:55:40;4.18;;;3.88;;
3207;SDS011;1616;52.394;9.756;2023-06-22T07:58:06;7.75;;;3.63;;
3207;SDS011;1616;52.394;9.756;2023-06-22T08:00:33;4.07;;;3.88;;
3207;SDS011;1616;52.394;9.756;2023-06-22T08:02:59;4.00;;;3.80;;
3207;SDS011;1616;52.394;9.756;2023-06-22T08:05:26;4.77;;;4.37;;
3207;SDS011;1616;52.394;9.756;2023-06-22T08:07:53;5.60;;;5.07;;
3207;SDS011;1616;52.394;9.756;2023-06-22T08:10:20;8.70;;;4.50;;
3207;SDS011;1616;52.394;9.756;2023-06-22T08:12:46;4.93;;;3.70;;
3207;SDS011;1616;52.394;9.756;2023-06-22T08:15:12;4.73;;;4.20;;
3207;SDS011;1616;52.394;9.756;2023-06-22T08:17:38;5.60;;;5.10;;
3207;SDS011;1616;52.394;9.756;2023-06-22T08:20:04;7.20;;;6.17;;
3207;SDS011;1616;52.394;9.756;2023-06-22T08:22:40;8.73;;;5.63;;
3207;SDS011;1616;52.394;9.756;2023-06-22T08:25:06;6.03;;;4.10;;
3207;SDS011;1616;52.394;9.756;2023-06-22T08:27:32;5.07;;;4.63;;
3207;SDS011;1616;52.394;9.756;2023-06-22T08:29:59;6.67;;;5.57;;
3207;SDS011;1616;52.394;9.756;2023-06-22T08:32:27;6.30;;;5.80;;
3207;SDS011;1616;52.394;9.756;2023-06-22T08:34:54;9.10;;;6.20;;
3207;SDS011;1616;52.394;9.756;2023-06-22T08:37:23;10.50;;;5.90;;
3207;SDS011;1616;52.394;9.756;2023-06-22T08:39:56;5.90;;;5.47;;
3207;SDS011;1616;52.394;9.756;2023-06-22T08:42:23;7.60;;;7.30;;
3207;SDS011;1616;52.394;9.756;2023-06-22T08:44:50;7.67;;;7.20;;
3207;SDS011;1616;52.394;9.756;2023-06-22T08:47:15;8.90;;;7.07;;
3207;SDS011;1616;52.394;9.756;2023-06-22T08:49:41;7.63;;;7.23;;
3207;SDS011;1616;52.394;9.756;2023-06-22T08:52:07;7.30;;;6.90;;
3207;SDS011;1616;52.394;9.756;2023-06-22T08:54:33;7.63;;;7.30;;
3207;SDS011;1616;52.394;9.756;2023-06-22T08:57:00;7.43;;;6.93;;
3207;SDS011;1616;52.394;9.756;2023-06-22T08:59:26;7.27;;;6.70;;
3207;SDS011;1616;52.394;9.756;2023-06-22T09:01:52;7.40;;;6.97;;
3207;SDS011;1616;52.394;9.756;2023-06-22T09:04:17;7.23;;;6.93;;
3207;SDS011;1616;52.394;9.756;2023-06-22T09:06:43;9.17;;;8.57;;
3207;SDS011;1616;52.394;9.756;2023-06-22T09:09:10;8.20;;;7.70;;
3207;SDS011;1616;52.394;9.756;2023-06-22T09:11:40;8.67;;;8.27;;
3207;SDS011;1616;52.394;9.756;2023-06-22T09:14:06;8.47;;;7.90;;
3207;SDS011;1616;52.394;9.756;2023-06-22T09:16:32;8.63;;;8.13;;
3207;SDS011;1616;52.394;9.756;2023-06-22T09:18:58;8.50;;;8.00;;
3207;SDS011;1616;52.394;9.756;2023-06-22T09:21:23;8.50;;;8.00;;
3207;SDS011;1616;52.394;9.756;2023-06-22T09:23:49;10.57;;;10.00;;
3207;SDS011;1616;52.394;9.756;2023-06-22T09:26:19;11.03;;;10.20;;
3207;SDS011;1616;52.394;9.756;2023-06-22T09:28:45;8.90;;;8.40;;
3207;SDS011;1616;52.394;9.756;2023-06-22T09:31:11;9.53;;;8.77;;
3207;SDS011;1616;52.394;9.756;2023-06-22T09:33:37;10.50;;;9.63;;
3207;SDS011;1616;52.394;9.756;2023-06-22T09:36:05;11.43;;;8.60;;
3207;SDS011;1616;52.394;9.756;2023-06-22T09:38:37;8.80;;;8.30;;
3207;SDS011;1616;52.394;9.756;2023-06-22T09:41:03;10.83;;;9.70;;
3207;SDS011;1616;52.394;9.756;2023-06-22T09:43:31;9.87;;;9.37;;
3207;SDS011;1616;52.394;9.756;2023-06-22T09:45:59;8.70;;;8.20;;
3207;SDS011;1616;52.394;9.756;2023-06-22T09:48:26;9.63;;;9.13;;
3207;SDS011;1616;52.394;9.756;2023-06-22T09:50:53;10.63;;;9.33;;
3207;SDS011;1616;52.394;9.756;2023-06-22T09:53:19;10.00;;;9.43;;
3207;SDS011;1616;52.394;9.756;2023-06-22T09:55:45;10.53;;;9.73;;
3207;SDS011;1616;52.394;9.756;2023-06-22T09:58:11;10.23;;;9.63;;
3207;SDS011;1616;52.394;9.756;2023-06-22T10:00:36;10.33;;;9.60;;
3207;SDS011;1616;52.394;9.756;2023-06-22T10:03:02;10.30;;;8.70;;
3207;SDS011;1616;52.394;9.756;2023-06-22T10:05:28;13.70;;;10.70;;
3207;SDS011;1616;52.394;9.756;2023-06-22T10:07:53;10.67;;;9.50;;
3207;SDS011;1616;52.394;9.756;2023-06-22T10:10:19;10.10;;;9.50;;
3207;SDS011;1616;52.394;9.756;2023-06-22T10:12:46;11.10;;;10.00;;
3207;SDS011;1616;52.394;9.756;2023-06-22T10:15:13;10.93;;;10.03;;
3207;SDS011;1616;52.394;9.756;2023-06-22T10:17:41;10.20;;;9.50;;
3207;SDS011;1616;52.394;9.756;2023-06-22T10:20:07;10.57;;;9.83;;
3207;SDS011;1616;52.394;9.756;2023-06-22T10:22:44;10.03;;;9.43;;
3207;SDS011;1616;52.394;9.756;2023-06-22T10:25:11;11.07;;;10.00;;
3207;SDS011;1616;52.394;9.756;2023-06-22T10:27:38;10.70;;;10.00;;
3207;SDS011;1616;52.394;9.756;2023-06-22T10:30:05;10.40;;;9.83;;
3207;SDS011;1616;52.394;9.756;2023-06-22T10:32:32;11.40;;;10.20;;
3207;SDS011;1616;52.394;9.756;2023-06-22T10:34:58;9.97;;;9.33;;
3207;SDS011;1616;52.394;9.756;2023-06-22T10:37:24;11.97;;;10.97;;
3207;SDS011;1616;52.394;9.756;2023-06-22T10:39:49;11.10;;;10.30;;
3207;SDS011;1616;52.394;9.756;2023-06-22T10:42:15;9.83;;;9.33;;
3207;SDS011;1616;52.394;9.756;2023-06-22T10:44:41;11.50;;;10.47;;
3207;SDS011;1616;52.394;9.756;2023-06-22T10:47:09;12.33;;;11.63;;
3207;SDS011;1616;52.394;9.756;2023-06-22T10:49:37;11.60;;;10.80;;
3207;SDS011;1616;52.394;9.756;2023-06-22T10:52:04;11.03;;;10.00;;
3207;SDS011;1616;52.394;9.756;2023-06-22T10:54:32;11.80;;;11.00;;
3207;SDS011;1616;52.394;9.756;2023-06-22T10:56:59;11.97;;;11.07;;
3207;SDS011;1616;52.394;9.756;2023-06-22T10:59:24;9.67;;;9.00;;
3207;SDS011;1616;52.394;9.756;2023-06-22T11:01:51;10.67;;;9.70;;
3207;SDS011;1616;52.394;9.756;2023-06-22T11:04:17;11.30;;;10.53;;
3207;SDS011;1616;52.394;9.756;2023-06-22T11:06:43;13.00;;;11.70;;
3207;SDS011;1616;52.394;9.756;2023-06-22T11:09:08;10.83;;;10.23;;
3207;SDS011;1616;52.394;9.756;2023-06-22T11:11:34;11.80;;;11.00;;
3207;SDS011;1616;52.394;9.756;2023-06-22T11:14:00;10.90;;;9.90;;
3207;SDS011;1616;52.394;9.756;2023-06-22T11:16:26;10.03;;;8.87;;
3207;SDS011;1616;52.394;9.756;2023-06-22T11:18:52;11.77;;;10.57;;
3207;SDS011;1616;52.394;9.756;2023-06-22T11:21:18;12.67;;;11.53;;
3207;SDS011;1616;52.394;9.756;2023-06-22T11:23:43;10.87;;;10.00;;
3207;SDS011;1616;52.394;9.756;2023-06-22T11:26:09;10.77;;;9.83;;
3207;SDS011;1616;52.394;9.756;2023-06-22T11:28:34;11.43;;;10.83;;
3207;SDS011;1616;52.394;9.756;2023-06-22T11:31:00;10.87;;;10.27;;
3207;SDS011;1616;52.394;9.756;2023-06-22T11:33:25;15.53;;;9.70;;
3207;SDS011;1616;52.394;9.756;2023-06-22T11:35:51;12.13;;;10.43;;
3207;SDS011;1616;52.394;9.756;2023-06-22T11:38:16;12.10;;;9.87;;
3207;SDS011;1616;52.394;9.756;2023-06-22T11:40:42;11.47;;;10.77;;
3207;SDS011;1616;52.394;9.756;2023-06-22T11:43:08;12.10;;;11.07;;
3207;SDS011;1616;52.394;9.756;2023-06-22T11:45:33;11.17;;;10.50;;
3207;SDS011;1616;52.394;9.756;2023-06-22T11:47:59;8.80;;;8.50;;
3207;SDS011;1616;52.394;9.756;2023-06-22T11:50:24;9.87;;;9.47;;
3207;SDS011;1616;52.394;9.756;2023-06-22T11:52:50;12.20;;;11.40;;
3207;SDS011;1616;52.394;9.756;2023-06-22T11:55:18;10.90;;;10.10;;
3207;SDS011;1616;52.394;9.756;2023-06-22T11:57:54;11.97;;;11.07;;
3207;SDS011;1616;52.394;9.756;2023-06-22T12:00:21;10.13;;;9.73;;
3207;SDS011;1616;52.394;9.756;2023-06-22T12:02:49;11.43;;;11.03;;
3207;SDS011;1616;52.394;9.756;2023-06-22T12:05:16;11.67;;;11.10;;
3207;SDS011;1616;52.394;9.756;2023-06-22T12:07:43;10.77;;;10.38;;
3207;SDS011;1616;52.394;9.756;2023-06-22T12:10:09;10.35;;;9.93;;
3207;SDS011;1616;52.394;9.756;2023-06-22T12:12:34;9.27;;;8.98;;
3207;SDS011;1616;52.394;9.756;2023-06-22T12:15:00;9.23;;;8.65;;
3207;SDS011;1616;52.394;9.756;2023-06-22T12:17:29;8.68;;;8.15;;
3207;SDS011;1616;52.394;9.756;2023-06-22T12:19:55;10.45;;;9.43;;
3207;SDS011;1616;52.394;9.756;2023-06-22T12:22:21;10.05;;;9.43;;
3207;SDS011;1616;52.394;9.756;2023-06-22T12:24:47;9.00;;;8.25;;
3207;SDS011;1616;52.394;9.756;2023-06-22T12:27:12;10.30;;;9.70;;
3207;SDS011;1616;52.394;9.756;2023-06-22T12:29:41;11.97;;;11.30;;
3207;SDS011;1616;52.394;9.756;2023-06-22T12:32:07;10.80;;;10.07;;
3207;SDS011;1616;52.394;9.756;2023-06-22T12:34:33;11.47;;;10.40;;
3207;SDS011;1616;52.394;9.756;2023-06-22T12:36:58;10.80;;;10.30;;
3207;SDS011;1616;52.394;9.756;2023-06-22T12:39:24;10.73;;;10.10;;
3207;SDS011;1616;52.394;9.756;2023-06-22T12:41:49;11.97;;;10.90;;
3207;SDS011;1616;52.394;9.756;2023-06-22T12:44:15;9.77;;;9.13;;
3207;SDS011;1616;52.394;9.756;2023-06-22T12:46:41;9.80;;;9.03;;
3207;SDS011;1616;52.394;9.756;2023-06-22T12:49:06;10.50;;;9.90;;
3207;SDS011;1616;52.394;9.756;2023-06-22T12:51:32;12.13;;;11.17;;
3207;SDS011;1616;52.394;9.756;2023-06-22T12:54:00;9.57;;;8.83;;
3207;SDS011;1616;52.394;9.756;2023-06-22T12:56:25;8.90;;;8.27;;
3207;SDS011;1616;52.394;9.756;2023-06-22T12:58:50;9.63;;;9.17;;
3207;SDS011;1616;52.394;9.756;2023-06-22T13:01:16;11.00;;;10.50;;
3207;SDS011;1616;52.394;9.756;2023-06-22T13:03:43;12.40;;;11.20;;
3207;SDS011;1616;52.394;9.756;2023-06-22T13:06:08;12.67;;;11.63;;
3207;SDS011;1616;52.394;9.756;2023-06-22T13:08:34;11.93;;;10.73;;
3207;SDS011;1616;52.394;9.756;2023-06-22T13:10:59;10.83;;;10.13;;
3207;SDS011;1616;52.394;9.756;2023-06-22T13:13:25;10.40;;;9.63;;
3207;SDS011;1616;52.394;9.756;2023-06-22T13:15:52;9.60;;;9.30;;
3207;SDS011;1616;52.394;9.756;2023-06-22T13:18:19;10.77;;;9.70;;
3207;SDS011;1616;52.394;9.756;2023-06-22T13:20:45;10.17;;;9.67;;
3207;SDS011;1616;52.394;9.756;2023-06-22T13:23:11;11.63;;;10.63;;
3207;SDS011;1616;52.394;9.756;2023-06-22T13:25:37;12.17;;;11.17;;
3207;SDS011;1616;52.394;9.756;2023-06-22T13:28:03;11.03;;;10.37;;
3207;SDS011;1616;52.394;9.756;2023-06-22T13:30:29;10.30;;;9.53;;
3207;SDS011;1616;52.394;9.756;2023-06-22T13:32:56;12.20;;;11.27;;
3207;SDS011;1616;52.394;9.756;2023-06-22T13:35:22;11.63;;;10.83;;
3207;SDS011;1616;52.394;9.756;2023-06-22T13:37:47;12.00;;;11.30;;
3207;SDS011;1616;52.394;9.756;2023-06-22T13:40:13;13.13;;;12.10;;
3207;SDS011;1616;52.394;9.756;2023-06-22T13:42:39;13.70;;;12.80;;
3207;SDS011;1616;52.394;9.756;2023-06-22T13:45:06;14.47;;;13.13;;
3207;SDS011;1616;52.394;9.756;2023-06-22T13:47:33;12.60;;;11.83;;
3207;SDS011;1616;52.394;9.756;2023-06-22T13:49:58;13.30;;;12.40;;
3207;SDS011;1616;52.394;9.756;2023-06-22T13:52:24;13.97;;;13.00;;
3207;SDS011;1616;52.394;9.756;2023-06-22T13:54:50;13.53;;;12.73;;
3207;SDS011;1616;52.394;9.756;2023-06-22T13:57:16;13.53;;;12.37;;
3207;SDS011;1616;52.394;9.756;2023-06-22T13:59:41;12.40;;;11.70;;
3207;SDS011;1616;52.394;9.756;2023-06-22T14:02:07;15.00;;;11.50;;
3207;SDS011;1616;52.394;9.756;2023-06-22T14:04:33;13.33;;;12.33;;
3207;SDS011;1616;52.394;9.756;2023-06-22T14:06:59;13.43;;;12.30;;
3207;SDS011;1616;52.394;9.756;2023-06-22T14:09:24;13.33;;;12.30;;
3207;SDS011;1616;52.394;9.756;2023-06-22T14:11:50;12.70;;;11.90;;
3207;SDS011;1616;52.394;9.756;2023-06-22T14:14:16;13.60;;;12.70;;
3207;SDS011;1616;52.394;9.756;2023-06-22T14:16:42;13.97;;;13.07;;
3207;SDS011;1616;52.394;9.756;2023-06-22T14:19:07;13.30;;;12.40;;
3207;SDS011;1616;52.394;9.756;2023-06-22T14:21:36;16.03;;;14.80;;
3207;SDS011;1616;52.394;9.756;2023-06-22T14:24:02;15.27;;;14.37;;
3207;SDS011;1616;52.394;9.756;2023-06-22T14:26:28;16.07;;;14.57;;
3207;SDS011;1616;52.394;9.756;2023-06-22T14:28:53;14.20;;;13.33;;
3207;SDS011;1616;52.394;9.756;2023-06-22T14:31:19;16.57;;;15.37;;
3207;SDS011;1616;52.394;9.756;2023-06-22T14:33:48;16.97;;;15.40;;
3207;SDS011;1616;52.394;9.756;2023-06-22T14:36:15;15.37;;;14.47;;
3207;SDS011;1616;52.394;9.756;2023-06-22T14:38:40;15.50;;;14.10;;
3207;SDS011;1616;52.394;9.756;2023-06-22T14:41:06;14.37;;;13.03;;
3207;SDS011;1616;52.394;9.756;2023-06-22T14:43:33;13.80;;;12.90;;
3207;SDS011;1616;52.394;9.756;2023-06-22T14:45:58;14.40;;;13.40;;
3207;SDS011;1616;52.394;9.756;2023-06-22T14:48:24;15.20;;;14.10;;
3207;SDS011;1616;52.394;9.756;2023-06-22T14:50:50;15.00;;;13.57;;
3207;SDS011;1616;52.394;9.756;2023-06-22T14:53:15;15.00;;;14.10;;
3207;SDS011;1616;52.394;9.756;2023-06-22T14:55:41;15.00;;;13.90;;
3207;SDS011;1616;52.394;9.756;2023-06-22T14:58:07;12.13;;;11.43;;
3207;SDS011;1616;52.394;9.756;2023-06-22T15:00:32;13.63;;;12.67;;
3207;SDS011;1616;52.394;9.756;2023-06-22T15:02:58;11.33;;;10.67;;